Tuesday, October 16, 2018, 10:03 AM GMT
Back to Local

CYOW, Ottawa Int'L. Ont.

Location: , , Canada Lat: 45.317
Local Time: 10:03 AM GMT (10:03 GMT) Lon: -75.667
Time Zone: GMT Elev: 380 ft

Show me the last for .
Show Decoded

2018-10-16 09:00 METAR CYOW 160900Z 25013KT 15SM BKN037 04/M00 A2997 RMK SC7 SLP152 =
2018-10-16 08:00 METAR CYOW 160800Z 26011G20KT 15SM BKN037 04/M01 A2993 RMK SC7 SLP139 =
2018-10-16 07:00 METAR CYOW 160700Z 26019G25KT 15SM BKN041 04/M01 A2991 RMK SC5 SLP133 =
2018-10-16 06:00 METAR CYOW 160600Z 26016G24KT 15SM SCT039 04/M01 A2989 RMK SC3 SLP128 =
2018-10-16 05:00 METAR CYOW 160500Z 25020G28KT 15SM FEW038 04/M02 A2986 RMK SC1 SLP115 =
2018-10-16 04:00 METAR CYOW 160400Z 27024G38KT 15SM FEW045 SCT100 04/M02 A2983 RMK SC1AC3 SLP108
                 =
2018-10-16 03:05 METAR CYOW 160305Z 26023G32KT 15SM FEW035 FEW045 BKN100 05/01 A2981 RMK
                 SC1SC1AC5 CVCTV CLD EMBD SLP099 =
2018-10-16 03:00 METAR CYOW 160300Z 26017G27KT 15SM FEW035 FEW045 BKN100 05/02 A2981 RMK
                 SC1SC1AC5 CVCTV CLD EMBD OCNL -SHRA SLP099 =
2018-10-16 02:42 METAR CYOW 160242Z CCA 27015G22KT 15SM -SHRA FEW035 FEW070 SCT093 05/02 A2979
                 RMK SC1AC1AC2 CVCTV CLD EMBD SLP094 =
2018-10-16 02:37 METAR CYOW 160237Z 26014G20KT 15SM FEW035 FEW070 BKN093 05/02 A2979 RMK
                 SC1AC1AC4 SLP092 =
2018-10-16 02:00 METAR CYOW 160200Z 25017G22KT 15SM -SHRA FEW035 SCT065 BKN080 07/02 A2976 RMK
                 SC1SC3AC2 SLP083 =
2018-10-16 01:00 METAR CYOW 160100Z 26018G27KT 15SM SCT065 07/02 A2973 RMK SC4 SLP072 =
2018-10-16 00:00 METAR CYOW 160000Z 26018KT 15SM SCT035 SCT050 BKN095 09/05 A2970 RMK SC3SC1AC1
                 SLP061 =
2018-10-15 23:00 METAR CYOW 152300Z 24018G30KT 15SM SCT016 BKN033 BKN095 11/07 A2965 RMK
                 SC3SC3AC1 TCU EMBD SLP045 =
2018-10-15 22:00 METAR CYOW 152200Z 24011KT 15SM FEW010 BKN028 12/11 A2961 RMK SF2SC5 SLP032
                 DENSITY ALT 500FT =
2018-10-15 21:27 METAR CYOW 152127Z 26012KT 15SM SCT010 BKN031 BKN081 11/11 A2961 RMK SF3SC3AC1
                 SLP031 DENSITY ALT 400FT =
2018-10-15 21:00 METAR CYOW 152100Z 21009KT 6SM -DZ BKN007 OVC027 11/11 A2960 RMK SF5SC3 SLP026
                 DENSITY ALT 400FT =
2018-10-15 20:00 METAR CYOW 152000Z 17008KT 2 1/2SM -DZ BR OVC003 10/09 A2961 RMK FG1ST7 SLP033 =
2018-10-15 19:00 METAR CYOW 151900Z 15008KT 120V180 2 1/2SM -DZ BR OVC005 09/09 A2965 RMK FG1ST7
                 SLP045 =
2018-10-15 18:29 METAR CYOW 151829Z 15006KT 1 1/2SM -DZ BR OVC004 09/08 A2968 RMK FG5ST3 PRESFR
                 SLP055 =
2018-10-15 18:00 METAR CYOW 151800Z 16006KT 1 1/2SM -RA BR OVC004 08/08 A2971 RMK FG5ST3 SLP066 =
2018-10-15 17:00 METAR CYOW 151700Z 14006KT 1 1/2SM -RA BR OVC005 08/08 A2976 RMK FG5SF3 SLP083 =
2018-10-15 16:15 METAR CYOW 151615Z 15005KT 1 3/4SM -RA BR OVC005 08/07 A2981 RMK FG5ST3 SLP098 =
2018-10-15 16:00 METAR CYOW 151600Z 14005KT 3SM -RA BR OVC006 08/07 A2982 RMK SF8 SLP102 =
2018-10-15 15:51 METAR CYOW 151551Z 14006KT 4SM -RA BR BKN008 OVC020 08/07 A2983 RMK SF7SC1
                 SLP104 =
2018-10-15 15:48 METAR CYOW 151548Z 14006KT 8SM -RA SCT008 OVC025 08/07 A2983 RMK SF3SC5 PRESFR
                 SLP104 =
2018-10-15 15:00 METAR CYOW 151500Z 14006KT 10SM -RA OVC055 08/06 A2986 RMK SC8 SLP117 =
2018-10-15 14:22 METAR CYOW 151422Z 15006KT 15SM -RA BKN066 OVC100 08/06 A2989 RMK AC7AC1 SLP126
                 =
2018-10-15 14:00 METAR CYOW 151400Z 15007KT 15SM BKN077 OVC120 08/05 A2990 RMK AC6AC2 SLP130 =
2018-10-15 13:00 METAR CYOW 151300Z 11006KT 15SM BKN110 BKN200 06/05 A2992 RMK AC6CI1 PRESFR
                 SLP135 =
2018-10-15 12:00 METAR CYOW 151200Z 08006KT 15SM BKN120 BKN200 05/04 A2995 RMK AC5CI2 SLP148 =
2018-10-15 11:00 METAR CYOW 151100Z 10005KT 15SM SCT140 BKN220 04/03 A2998 RMK AC3CI4 SLP159 =

Support USWX by starting your Amazon purchase here.